Time;durP1;ratioP1;P1;durP2;ratioP2;P2;SDS_P1;SDS_P2;PMS_P1;PMS_P2;Temp;Humidity;BMP_temperature;BMP_pressure;BME280_temperature;BME280_humidity;BME280_pressure;Samples;Min_cycle;Max_cycle;Signal;HPM_P1;HPM_P2
2021/06/03 00:00:57;;;;;;;5.32;4.93;;;;;;;21.11;44.23;101893.44;6210828;28;20237;-53
2021/06/03 00:04:18;;;;;;;4.97;4.57;;;;;;;20.80;44.72;101898.91;6216782;28;20236;-49
2021/06/03 00:07:38;;;;;;;4.70;4.30;;;;;;;20.89;44.43;101895.97;6214296;28;20233;-49
2021/06/03 00:11:03;;;;;;;5.35;4.80;;;;;;;21.03;44.46;101900.75;6214856;28;20233;-53
2021/06/03 00:14:24;;;;;;;5.10;4.70;;;;;;;20.76;44.73;101897.31;6212957;28;20245;-54
2021/06/03 00:17:46;;;;;;;6.35;5.85;;;;;;;20.93;44.69;101905.53;6210440;28;20315;-53
2021/06/03 00:21:08;;;;;;;5.63;5.15;;;;;;;20.76;44.93;101898.19;6214858;28;20249;-54
2021/06/03 00:24:28;;;;;;;8.65;6.10;;;;;;;20.91;44.70;101895.91;6216063;28;20236;-51
2021/06/03 00:27:49;;;;;;;4.40;4.00;;;;;;;20.90;44.88;101900.34;6208450;28;20308;-52
2021/06/03 00:31:10;;;;;;;7.32;6.70;;;;;;;20.85;44.84;101894.34;6199721;28;20583;-53
2021/06/03 00:34:33;;;;;;;6.82;5.55;;;;;;;20.98;44.58;101897.44;6210525;28;20233;-52
2021/06/03 00:37:53;;;;;;;5.68;5.18;;;;;;;20.90;45.11;101895.06;6212234;28;20229;-48
2021/06/03 00:41:14;;;;;;;4.25;3.85;;;;;;;20.73;45.14;101897.44;6196939;28;20271;-52
2021/06/03 00:44:36;;;;;;;6.25;5.75;;;;;;;20.76;45.28;101897.31;6208352;28;20236;-52
2021/06/03 00:47:57;;;;;;;5.60;5.03;;;;;;;20.80;45.14;101896.28;6207950;28;20237;-51
2021/06/03 00:51:19;;;;;;;6.13;5.50;;;;;;;20.84;45.16;101890.84;6211566;28;20229;-52
2021/06/03 00:54:39;;;;;;;6.57;5.93;;;;;;;20.73;45.49;101892.13;6205114;28;20256;-51
2021/06/03 00:57:59;;;;;;;6.28;5.68;;;;;;;20.80;45.05;101893.63;6204386;28;20248;-51
2021/06/03 01:01:21;;;;;;;5.32;4.93;;;;;;;20.64;45.58;101898.59;6170996;28;20240;-53
2021/06/03 01:04:42;;;;;;;5.95;4.78;;;;;;;20.41;45.97;101887.00;6191786;28;20229;-52
2021/06/03 01:08:05;;;;;;;5.72;5.22;;;;;;;20.51;46.14;101886.66;6171976;28;20249;-51
2021/06/03 01:11:32;;;;;;;5.70;5.22;;;;;;;20.55;45.87;101885.63;6205492;28;20225;-50
2021/06/03 01:14:59;;;;;;;5.35;4.85;;;;;;;20.52;45.78;101881.31;6197839;28;22596;-50
2021/06/03 01:18:20;;;;;;;5.50;5.00;;;;;;;20.34;46.26;101884.59;6189181;28;20225;-52
2021/06/03 01:21:49;;;;;;;6.28;5.68;;;;;;;20.42;45.90;101883.41;6172938;28;20320;-48
2021/06/03 01:25:12;;;;;;;4.88;4.45;;;;;;;20.29;46.42;101879.44;6200750;28;20237;-51
2021/06/03 01:28:35;;;;;;;6.10;4.63;;;;;;;20.21;46.61;101878.84;6208348;28;20245;-55
2021/06/03 01:31:58;;;;;;;5.05;4.55;;;;;;;20.10;46.66;101876.53;6199621;28;22116;-50
2021/06/03 01:35:22;;;;;;;6.25;5.57;;;;;;;20.15;46.84;101874.59;6189884;28;20843;-54
2021/06/03 01:38:44;;;;;;;5.32;4.45;;;;;;;20.04;47.08;101876.72;6188216;28;20623;-51
2021/06/03 01:42:09;;;;;;;5.18;4.70;;;;;;;19.94;47.52;101880.56;6197613;28;20304;-49
2021/06/03 01:45:30;;;;;;;4.85;4.55;;;;;;;19.90;47.29;101878.94;6195527;28;20320;-53
2021/06/03 01:48:51;;;;;;;8.57;5.47;;;;;;;19.68;47.52;101877.78;6191727;28;20233;-50
2021/06/03 01:52:14;;;;;;;6.20;4.00;;;;;;;19.99;47.16;101881.31;6200204;28;20225;-51
2021/06/03 01:55:35;;;;;;;5.43;5.03;;;;;;;19.93;46.96;101881.47;6198447;28;20249;-48
2021/06/03 01:58:58;;;;;;;5.20;4.70;;;;;;;19.70;47.46;101877.75;6173483;28;20240;-51
2021/06/03 02:02:19;;;;;;;5.22;4.80;;;;;;;19.36;48.08;101881.38;6203455;28;20252;-51
2021/06/03 02:05:40;;;;;;;4.55;4.22;;;;;;;19.73;47.29;101882.09;6210578;28;20249;-53
2021/06/03 02:09:01;;;;;;;5.68;5.18;;;;;;;19.77;47.32;101881.94;6209336;28;20256;-54
2021/06/03 02:12:22;;;;;;;5.05;4.55;;;;;;;19.76;47.54;101888.16;6211153;28;20237;-54
2021/06/03 02:15:52;;;;;;;4.97;4.57;;;;;;;19.99;46.95;101879.53;6207955;28;20615;-53
2021/06/03 02:19:14;;;;;;;5.07;4.32;;;;;;;20.13;46.37;101884.38;6207982;28;20236;-50
2021/06/03 02:22:48;;;;;;;6.00;4.57;;;;;;;20.03;46.77;101888.22;6209471;28;20251;-54
2021/06/03 02:26:10;;;;;;;5.43;5.03;;;;;;;19.91;47.43;101885.94;6191022;28;20229;-49
2021/06/03 02:29:36;;;;;;;5.20;4.38;;;;;;;19.76;47.81;101882.88;6182777;28;20240;-53
2021/06/03 02:33:05;;;;;;;4.97;4.55;;;;;;;19.35;48.23;101881.41;6207433;28;20225;-54
2021/06/03 02:36:27;;;;;;;5.80;4.85;;;;;;;19.77;47.36;101884.59;6193005;28;20221;-52
2021/06/03 02:39:49;;;;;;;4.75;4.30;;;;;;;19.31;48.30;101880.66;6192128;28;20812;-52
2021/06/03 02:43:11;;;;;;;5.05;4.65;;;;;;;19.39;48.22;101881.31;6204470;28;20229;-50
2021/06/03 02:46:32;;;;;;;4.93;4.53;;;;;;;19.35;48.22;101879.66;6204552;28;20229;-50
2021/06/03 02:49:58;;;;;;;5.97;5.07;;;;;;;19.42;48.34;101888.25;6204091;28;20662;-55
2021/06/03 02:53:19;;;;;;;4.97;4.57;;;;;;;19.42;47.89;101889.13;6187727;28;20632;-52
2021/06/03 02:56:41;;;;;;;5.43;4.97;;;;;;;19.59;47.79;101885.13;6206848;28;20225;-52
2021/06/03 03:00:09;;;;;;;5.40;4.50;;;;;;;18.82;49.63;101885.50;6209269;28;20252;-53
2021/06/03 03:03:31;;;;;;;6.78;4.88;;;;;;;19.11;48.81;101888.28;6201862;28;20534;-49
2021/06/03 03:06:53;;;;;;;7.85;7.15;;;;;;;19.53;48.14;101895.88;6215148;28;20511;-51
2021/06/03 03:10:18;;;;;;;11.45;4.80;;;;;;;19.42;48.12;101888.25;6203569;28;20225;-52
2021/06/03 03:13:40;;;;;;;4.57;4.28;;;;;;;19.34;48.61;101893.75;6194495;28;20228;-47
2021/06/03 03:17:01;;;;;;;5.32;4.82;;;;;;;19.56;47.91;101893.13;6183497;28;20237;-51
2021/06/03 03:20:25;;;;;;;5.55;4.90;;;;;;;19.56;48.05;101893.13;6189717;28;20237;-51
2021/06/03 03:23:48;;;;;;;5.63;5.13;;;;;;;19.55;47.93;101896.72;6189944;28;20531;-51
2021/06/03 03:27:10;;;;;;;6.72;5.15;;;;;;;19.48;48.31;101894.25;6195830;28;20233;-52
2021/06/03 03:30:33;;;;;;;5.20;4.80;;;;;;;19.35;48.55;101906.06;6185881;28;20237;-56
2021/06/03 03:33:56;;;;;;;6.32;5.35;;;;;;;19.19;48.85;101896.84;6207206;28;20226;-53
2021/06/03 03:37:17;;;;;;;5.30;4.80;;;;;;;19.22;49.08;101904.69;6192096;28;20229;-52
2021/06/03 03:40:40;;;;;;;5.38;4.97;;;;;;;19.50;48.81;101903.91;6195163;28;20755;-53
2021/06/03 03:44:02;;;;;;;5.38;4.82;;;;;;;19.61;48.01;101901.81;6188088;28;20237;-48
2021/06/03 03:47:22;;;;;;;5.13;4.63;;;;;;;19.38;48.61;101902.47;6207009;28;20332;-51
2021/06/03 03:50:44;;;;;;;6.72;5.28;;;;;;;19.50;48.66;101911.81;6206853;28;20502;-53
2021/06/03 03:54:07;;;;;;;5.32;4.88;;;;;;;19.29;48.95;101911.53;6190536;28;20222;-48
2021/06/03 03:57:29;;;;;;;5.95;5.45;;;;;;;19.37;49.05;101911.31;6187285;28;20232;-49
2021/06/03 04:00:53;;;;;;;5.20;4.78;;;;;;;19.22;49.34;101912.63;6188962;28;20799;-52
2021/06/03 04:04:16;;;;;;;5.35;4.95;;;;;;;19.21;49.29;101916.16;6199847;28;20233;-55
2021/06/03 04:07:38;;;;;;;5.57;5.07;;;;;;;19.28;49.45;101907.16;6185710;28;20320;-52
2021/06/03 04:11:00;;;;;;;9.38;5.55;;;;;;;19.43;49.15;101903.22;6203163;28;20229;-54
2021/06/03 04:14:26;;;;;;;5.82;5.35;;;;;;;19.27;49.39;101905.44;6208971;28;20630;-54
2021/06/03 04:17:49;;;;;;;5.85;5.30;;;;;;;19.50;48.73;101907.38;6209435;28;20643;-50
2021/06/03 04:21:12;;;;;;;5.13;4.72;;;;;;;19.36;49.16;101906.94;6173230;28;20229;-51
2021/06/03 04:24:34;;;;;;;5.97;5.55;;;;;;;19.07;49.63;101914.75;6194499;28;20245;-54
2021/06/03 04:27:55;;;;;;;5.13;4.72;;;;;;;19.05;49.86;101916.56;6209390;28;20237;-54
2021/06/03 04:31:17;;;;;;;6.30;5.75;;;;;;;19.22;49.51;101912.63;6221232;28;20257;-52
2021/06/03 04:34:37;;;;;;;6.72;5.40;;;;;;;19.35;49.39;101919.28;6208293;28;20229;-51
2021/06/03 04:37:57;;;;;;;5.63;4.45;;;;;;;19.85;48.33;101911.69;6209471;28;20245;-53
2021/06/03 04:41:18;;;;;;;5.30;4.80;;;;;;;19.86;48.10;101915.19;6192706;28;20229;-51
2021/06/03 04:44:38;;;;;;;5.47;5.05;;;;;;;19.26;49.28;101919.53;6213121;28;20328;-53
2021/06/03 04:48:00;;;;;;;5.80;5.40;;;;;;;19.21;49.38;101927.59;6210729;28;20233;-51
2021/06/03 04:51:20;;;;;;;5.13;4.63;;;;;;;19.84;48.00;101925.78;6208996;28;20233;-49
2021/06/03 04:54:41;;;;;;;7.47;5.05;;;;;;;19.32;49.34;101927.28;6193038;28;20335;-51
2021/06/03 04:58:04;;;;;;;5.38;4.88;;;;;;;19.41;49.27;101934.94;6210018;28;20845;-52
2021/06/03 05:01:24;;;;;;;5.72;5.15;;;;;;;19.33;49.72;101936.06;6177850;28;23658;-55
2021/06/03 05:04:47;;;;;;;7.15;5.53;;;;;;;19.42;49.20;101936.66;6192666;28;20229;-51
2021/06/03 05:08:08;;;;;;;5.85;4.97;;;;;;;19.57;48.81;101934.50;6207506;28;20225;-50
2021/06/03 05:11:29;;;;;;;5.93;5.43;;;;;;;19.31;49.77;101944.06;6206866;28;20240;-51
2021/06/03 05:14:49;;;;;;;6.45;5.55;;;;;;;19.20;49.66;101940.84;6207036;28;20233;-51
2021/06/03 05:18:10;;;;;;;6.35;5.75;;;;;;;19.43;49.19;101932.28;6206438;28;20340;-48
2021/06/03 05:21:34;;;;;;;8.57;6.30;;;;;;;19.65;48.48;101937.78;6194151;28;20249;-50
2021/06/03 05:24:55;;;;;;;6.15;5.47;;;;;;;19.85;48.36;101940.75;6208432;28;20320;-53
2021/06/03 05:28:15;;;;;;;6.15;5.53;;;;;;;19.29;49.35;101940.59;6204530;28;20540;-51
2021/06/03 05:31:35;;;;;;;6.15;5.65;;;;;;;19.81;48.30;101941.75;6208562;28;20615;-51
2021/06/03 05:34:56;;;;;;;5.95;5.35;;;;;;;19.91;48.21;101928.25;6207530;28;20229;-53
2021/06/03 05:38:18;;;;;;;6.20;5.70;;;;;;;20.14;48.90;101944.28;6207178;28;20226;-57
2021/06/03 05:41:39;;;;;;;5.82;4.85;;;;;;;20.54;49.16;101948.28;6190514;28;20578;-57
2021/06/03 05:44:59;;;;;;;6.90;5.47;;;;;;;20.15;48.59;101943.34;6204088;28;20242;-56
2021/06/03 05:48:20;;;;;;;5.63;5.00;;;;;;;20.39;47.37;101940.84;6206973;28;20776;-60
2021/06/03 05:51:41;;;;;;;5.82;4.68;;;;;;;20.93;46.98;101944.38;6211162;28;20237;-61
2021/06/03 05:55:04;;;;;;;8.95;5.38;;;;;;;20.19;47.97;101942.34;6206962;28;20229;-56
2021/06/03 05:58:25;;;;;;;5.95;5.45;;;;;;;20.49;46.99;101939.66;6191957;28;20225;-59
2021/06/03 06:01:46;;;;;;;6.95;5.35;;;;;;;20.44;47.63;101949.50;6208727;28;20233;-58
2021/06/03 06:08:45;;;;;;;6.00;5.50;;;;;;;20.83;46.69;101951.78;6188917;28;20530;-57
2021/06/03 06:12:08;;;;;;;5.72;5.05;;;;;;;21.04;46.37;101964.25;6200301;28;20516;-59
2021/06/03 06:15:30;;;;;;;6.93;6.18;;;;;;;20.39;47.79;101956.72;6201062;28;20232;-59
2021/06/03 06:18:50;;;;;;;10.57;6.25;;;;;;;20.15;47.71;101956.59;6194753;28;20787;-59
2021/06/03 06:22:11;;;;;;;6.32;5.75;;;;;;;20.31;47.70;101958.75;6202674;28;20225;-58
2021/06/03 06:25:32;;;;;;;5.18;4.72;;;;;;;20.33;48.80;101956.91;6212244;28;20634;-58
2021/06/03 06:28:56;;;;;;;6.85;5.85;;;;;;;20.41;47.90;101966.34;6207459;28;20230;-59
2021/06/03 06:32:16;;;;;;;4.95;4.55;;;;;;;20.53;48.13;101975.69;6197222;28;20644;-58
2021/06/03 06:35:37;;;;;;;7.43;5.57;;;;;;;20.48;47.46;101977.59;6201265;28;20295;-57
2021/06/03 06:38:57;;;;;;;5.43;4.95;;;;;;;20.59;48.08;101980.78;6210293;28;20229;-57
2021/06/03 06:42:18;;;;;;;7.05;6.35;;;;;;;20.15;47.98;101975.09;6208270;28;20225;-57
2021/06/03 06:45:40;;;;;;;5.72;5.10;;;;;;;20.76;47.56;101980.25;6200661;28;20319;-57
2021/06/03 06:49:00;;;;;;;7.05;6.30;;;;;;;20.32;47.49;101974.56;6200239;28;20237;-58
2021/06/03 06:52:21;;;;;;;7.10;5.43;;;;;;;20.83;47.05;101986.19;6205169;28;20229;-58
2021/06/03 06:55:42;;;;;;;6.22;5.63;;;;;;;21.00;45.70;101989.13;6207297;28;20240;-58
2021/06/03 06:59:02;;;;;;;6.28;5.68;;;;;;;20.61;47.00;101978.09;6207075;28;20689;-59
2021/06/03 07:02:24;;;;;;;6.80;4.95;;;;;;;21.02;46.84;101987.28;6205816;28;20232;-57
2021/06/03 07:05:46;;;;;;;5.18;4.72;;;;;;;20.98;47.17;101995.41;6207839;28;20319;-57
2021/06/03 07:09:06;;;;;;;6.57;5.90;;;;;;;20.97;46.36;102002.47;6200976;28;20249;-56
2021/06/03 07:12:26;;;;;;;6.00;5.50;;;;;;;20.82;46.71;101997.69;6210307;28;20225;-57
2021/06/03 07:15:47;;;;;;;5.53;5.03;;;;;;;21.38;46.28;101996.63;6209447;28;20393;-58
2021/06/03 07:19:09;;;;;;;6.07;5.55;;;;;;;21.40;45.56;101998.34;6208559;28;20241;-59
2021/06/03 07:22:29;;;;;;;7.47;5.15;;;;;;;21.51;45.49;102002.41;6202957;28;20614;-58
2021/06/03 07:25:50;;;;;;;5.82;5.32;;;;;;;21.45;45.54;102005.28;6208907;28;20240;-60
2021/06/03 07:29:10;;;;;;;7.93;5.93;;;;;;;21.42;45.46;101993.84;6205764;28;20233;-58
2021/06/03 07:32:31;;;;;;;5.53;5.13;;;;;;;21.85;45.00;102001.16;6205673;28;20613;-59
2021/06/03 07:35:53;;;;;;;5.78;5.25;;;;;;;21.89;44.65;101997.47;6204493;28;20233;-59
2021/06/03 07:39:14;;;;;;;5.88;5.35;;;;;;;21.85;45.02;101995.84;6214276;28;20249;-53
2021/06/03 07:42:34;;;;;;;9.48;6.22;;;;;;;21.70;45.25;101992.84;6202804;28;20244;-58
2021/06/03 07:45:55;;;;;;;5.88;5.40;;;;;;;22.40;43.81;101988.44;6210643;28;20233;-57
2021/06/03 07:49:16;;;;;;;5.80;5.35;;;;;;;23.07;42.91;101973.28;6213999;28;20233;-54
2021/06/03 07:52:38;;;;;;;5.75;5.32;;;;;;;23.82;41.47;101977.91;6211045;28;20241;-58
2021/06/03 07:55:58;;;;;;;6.05;4.90;;;;;;;22.55;43.33;101987.81;6212539;28;20244;-59
2021/06/03 07:59:19;;;;;;;5.03;4.22;;;;;;;23.10;42.87;101979.34;6196956;28;20229;-54
2021/06/03 08:02:42;;;;;;;6.75;4.70;;;;;;;23.52;41.94;101993.47;6209866;28;20217;-58
2021/06/03 08:06:04;;;;;;;5.85;5.35;;;;;;;23.02;42.32;101976.13;6211058;28;20312;-55
2021/06/03 08:09:26;;;;;;;6.03;4.97;;;;;;;22.60;42.98;101983.19;6210789;28;20835;-53
2021/06/03 08:12:46;;;;;;;8.88;6.47;;;;;;;22.36;43.66;101992.13;6201640;28;20592;-52
2021/06/03 08:16:06;;;;;;;8.10;5.70;;;;;;;22.90;43.32;101981.97;6213785;28;20229;-57
2021/06/03 08:19:26;;;;;;;6.03;5.50;;;;;;;23.35;42.35;101980.94;6205605;28;20583;-58
2021/06/03 08:22:47;;;;;;;6.90;4.72;;;;;;;23.09;42.31;101980.28;6214733;28;20807;-58
2021/06/03 08:26:09;;;;;;;6.80;6.10;;;;;;;23.34;42.52;101993.34;6206446;28;20252;-58
2021/06/03 08:29:29;;;;;;;5.40;4.90;;;;;;;22.92;42.44;101999.56;6210320;28;20233;-57
2021/06/03 08:32:51;;;;;;;7.13;4.90;;;;;;;23.82;41.29;101982.38;6217284;28;20234;-57
2021/06/03 08:36:11;;;;;;;6.00;5.18;;;;;;;23.74;41.98;101990.69;6205726;28;20234;-57
2021/06/03 08:39:32;;;;;;;6.85;4.90;;;;;;;23.55;41.87;101990.66;6204512;28;20225;-58
2021/06/03 08:42:56;;;;;;;4.93;4.53;;;;;;;24.04;41.63;101995.53;6206103;28;20229;-58
2021/06/03 08:46:16;;;;;;;5.43;4.93;;;;;;;23.72;41.56;101987.25;6205266;28;20670;-60
2021/06/03 08:49:38;;;;;;;5.93;5.30;;;;;;;24.14;41.25;101992.38;6209807;28;20229;-58
2021/06/03 08:53:00;;;;;;;5.68;4.80;;;;;;;23.68;41.33;102005.13;6203452;28;20512;-58
2021/06/03 08:56:21;;;;;;;6.10;5.50;;;;;;;23.74;41.71;101988.88;6203289;28;20320;-59
2021/06/03 08:59:43;;;;;;;6.40;5.07;;;;;;;24.27;41.24;101974.03;6208524;28;20249;-57
2021/06/03 09:03:04;;;;;;;7.10;5.15;;;;;;;24.14;41.46;101968.44;6209613;28;20245;-58
2021/06/03 09:06:26;;;;;;;5.30;4.90;;;;;;;24.55;40.28;101973.56;6197495;28;20363;-56
2021/06/03 09:09:47;;;;;;;6.03;4.97;;;;;;;24.18;40.94;101969.16;6211872;28;20598;-58
2021/06/03 09:13:09;;;;;;;5.53;5.00;;;;;;;24.10;40.35;101966.00;6208324;28;20761;-57
2021/06/03 09:16:33;;;;;;;5.07;4.60;;;;;;;24.36;40.23;101970.03;6197510;28;20655;-57
2021/06/03 09:19:55;;;;;;;5.82;5.32;;;;;;;24.56;39.51;101991.28;6208776;28;20848;-60
2021/06/03 09:23:27;;;;;;;7.07;5.55;;;;;;;24.66;39.61;101970.38;6207041;28;20225;-62
2021/06/03 09:26:49;;;;;;;4.68;4.28;;;;;;;24.95;39.62;101971.53;6206092;28;20241;-55
2021/06/03 09:30:12;;;;;;;6.03;5.35;;;;;;;24.75;39.49;101974.34;6207627;28;20862;-58
2021/06/03 09:33:56;;;;;;;6.32;5.13;;;;;;;24.53;39.88;101972.78;6208963;28;20510;-60
2021/06/03 09:37:16;;;;;;;6.18;5.30;;;;;;;24.31;39.58;101970.28;6210545;28;20240;-57
2021/06/03 09:40:48;;;;;;;5.15;4.72;;;;;;;25.03;38.89;101979.16;6206637;28;20229;-59
2021/06/03 09:44:13;;;;;;;4.78;4.22;;;;;;;24.32;39.90;101979.97;6199803;28;20229;-58
2021/06/03 09:47:35;;;;;;;7.05;4.53;;;;;;;24.15;39.85;101996.75;6205234;28;20237;-58
2021/06/03 09:51:19;;;;;;;6.30;4.78;;;;;;;24.15;39.63;101991.44;6206575;28;20241;-57
2021/06/03 09:54:42;;;;;;;4.10;3.83;;;;;;;24.64;39.82;101998.00;6206889;28;20225;-60
2021/06/03 09:58:02;;;;;;;4.68;4.32;;;;;;;24.39;40.12;101999.19;6204339;28;20229;-58
2021/06/03 10:01:43;;;;;;;4.65;4.30;;;;;;;24.61;39.76;102001.69;6174174;28;20226;-58
2021/06/03 10:05:11;;;;;;;4.85;4.45;;;;;;;24.37;40.16;101998.41;6202232;28;20224;-57
2021/06/03 10:08:46;;;;;;;6.93;4.85;;;;;;;24.36;40.08;101994.84;6199491;28;20603;-58
2021/06/03 10:12:09;;;;;;;6.30;4.85;;;;;;;23.91;39.97;102000.59;6213686;28;20602;-58
2021/06/03 10:15:35;;;;;;;5.25;4.75;;;;;;;24.65;40.05;102005.06;6204035;28;20233;-58
2021/06/03 10:19:17;;;;;;;7.88;4.93;;;;;;;24.91;38.39;102006.41;6206021;28;20248;-59
2021/06/03 10:22:40;;;;;;;8.77;4.40;;;;;;;24.56;38.99;102009.91;6211659;28;20516;-60
2021/06/03 10:26:05;;;;;;;5.28;4.60;;;;;;;24.54;38.97;102002.91;6188511;28;20261;-59
2021/06/03 10:29:27;;;;;;;7.30;5.75;;;;;;;23.78;40.44;102011.78;6213465;28;20253;-60
2021/06/03 10:32:50;;;;;;;7.28;5.07;;;;;;;24.17;39.29;102005.56;6203330;28;20241;-57
2021/06/03 10:36:12;;;;;;;8.98;5.18;;;;;;;24.29;39.79;102009.41;6206429;28;20331;-57
2021/06/03 10:39:33;;;;;;;6.20;4.95;;;;;;;24.51;39.36;102000.41;6209306;28;20237;-59
2021/06/03 10:42:56;;;;;;;5.03;4.63;;;;;;;24.66;39.56;102001.44;6206415;28;20225;-59
2021/06/03 10:46:16;;;;;;;7.63;5.65;;;;;;;24.53;39.39;102014.53;6210131;28;20233;-60
2021/06/03 10:49:38;;;;;;;7.95;5.32;;;;;;;24.05;40.59;102019.41;6206609;28;20253;-59
2021/06/03 10:53:07;;;;;;;4.88;4.47;;;;;;;24.45;39.44;102019.34;6202703;28;20237;-59
2021/06/03 10:56:28;;;;;;;6.32;4.97;;;;;;;24.01;39.78;102036.47;6208383;28;20946;-59
2021/06/03 10:59:51;;;;;;;7.95;5.25;;;;;;;24.31;39.28;102033.28;6203939;28;20252;-59
2021/06/03 11:03:14;;;;;;;6.75;4.70;;;;;;;24.47;38.08;102039.59;6212209;28;20229;-59
2021/06/03 11:06:43;;;;;;;6.13;4.53;;;;;;;24.44;38.28;102039.75;6208596;28;20614;-58
2021/06/03 11:10:31;;;;;;;7.15;4.65;;;;;;;24.03;39.26;102042.56;6211861;28;20229;-59
2021/06/03 11:14:04;;;;;;;5.47;4.30;;;;;;;24.35;38.22;102037.53;6208434;28;20221;-59
2021/06/03 11:17:55;;;;;;;5.93;4.97;;;;;;;24.24;38.91;102031.88;6200305;28;20311;-59
2021/06/03 11:21:50;;;;;;;5.70;4.82;;;;;;;24.56;37.73;102030.31;6204956;28;20237;-58
2021/06/03 11:25:36;;;;;;;5.72;4.57;;;;;;;24.46;38.12;102037.00;6207615;28;20229;-60
2021/06/03 11:29:11;;;;;;;5.82;5.38;;;;;;;24.42;38.87;102036.28;6197315;28;20225;-60
2021/06/03 11:32:35;;;;;;;5.45;4.95;;;;;;;24.21;38.45;102037.31;6200528;28;20356;-58
2021/06/03 11:36:30;;;;;;;5.18;4.50;;;;;;;24.31;39.52;102044.81;6201195;28;20233;-59
2021/06/03 11:39:52;;;;;;;6.93;4.95;;;;;;;24.63;38.25;102034.44;6176634;28;20566;-58
2021/06/03 11:43:13;;;;;;;5.43;4.50;;;;;;;24.94;37.88;102033.75;6197642;28;20658;-59
2021/06/03 11:46:58;;;;;;;7.15;4.75;;;;;;;25.10;38.44;102032.97;6200765;28;20232;-57
2021/06/03 11:50:38;;;;;;;5.05;4.55;;;;;;;25.53;37.87;102036.09;6203408;28;20626;-60
2021/06/03 11:53:59;;;;;;;5.35;4.65;;;;;;;25.42;37.94;102038.50;6197383;28;20237;-58
2021/06/03 11:57:21;;;;;;;6.13;4.18;;;;;;;25.03;38.41;102034.22;6203091;28;20237;-57
2021/06/03 12:00:43;;;;;;;4.68;4.28;;;;;;;24.85;39.00;102025.38;6203339;28;20323;-56
2021/06/03 12:04:10;;;;;;;4.63;4.32;;;;;;;24.80;38.89;102032.75;6207757;28;20328;-57
2021/06/03 12:07:40;;;;;;;5.70;5.10;;;;;;;24.44;39.79;102037.06;6206684;28;20304;-59
2021/06/03 12:11:04;;;;;;;5.90;4.35;;;;;;;24.51;39.12;102029.72;6197828;28;20284;-59
2021/06/03 12:14:26;;;;;;;4.97;4.55;;;;;;;24.80;39.05;102025.59;6202279;28;20229;-60
2021/06/03 12:17:48;;;;;;;4.78;4.38;;;;;;;24.92;39.39;102009.00;6204647;28;20599;-58
2021/06/03 12:21:12;;;;;;;7.03;4.55;;;;;;;25.13;39.04;102003.50;6203034;28;20237;-59
2021/06/03 12:24:35;;;;;;;7.63;5.15;;;;;;;24.92;39.02;102010.81;6202282;28;20245;-59
2021/06/03 12:27:57;;;;;;;8.48;4.93;;;;;;;24.54;39.75;102025.09;6210810;28;20324;-59
2021/06/03 12:31:20;;;;;;;6.95;5.28;;;;;;;24.43;39.57;102043.34;6209395;28;20248;-58
2021/06/03 12:34:41;;;;;;;5.78;5.28;;;;;;;24.78;39.03;102038.13;6208051;28;20626;-58
2021/06/03 12:38:02;;;;;;;5.15;4.65;;;;;;;25.14;39.69;102029.22;6205957;28;20233;-58
2021/06/03 12:41:26;;;;;;;5.43;4.22;;;;;;;25.29;39.09;102028.44;6209164;28;20268;-59
2021/06/03 12:45:00;;;;;;;6.90;4.93;;;;;;;25.14;39.33;102029.22;6205577;28;22122;-57
2021/06/03 12:48:21;;;;;;;4.18;3.65;;;;;;;25.30;39.07;102019.53;6195502;28;20241;-59
2021/06/03 12:51:53;;;;;;;4.18;3.38;;;;;;;25.64;38.99;102020.38;6207401;28;20237;-58
2021/06/03 12:55:15;;;;;;;6.07;4.30;;;;;;;25.46;39.70;102014.25;6212354;28;20229;-58
2021/06/03 12:58:35;;;;;;;5.28;3.90;;;;;;;25.58;38.79;102018.06;6206928;28;20237;-60
2021/06/03 13:01:59;;;;;;;6.32;3.60;;;;;;;25.68;39.61;102021.94;6212279;28;20260;-59
2021/06/03 13:05:22;;;;;;;4.55;4.22;;;;;;;25.83;38.85;102024.75;6211315;28;20229;-61
2021/06/03 13:08:45;;;;;;;4.65;4.25;;;;;;;25.99;38.66;102033.66;6205016;28;20233;-59
2021/06/03 13:12:07;;;;;;;6.53;4.38;;;;;;;26.11;38.70;102033.00;6210283;28;20233;-59
2021/06/03 13:15:29;;;;;;;4.20;3.90;;;;;;;26.29;38.36;102035.59;6210130;28;20237;-58
2021/06/03 13:18:52;;;;;;;5.18;4.65;;;;;;;26.41;38.34;102040.22;6198664;28;20225;-58
2021/06/03 13:22:14;;;;;;;4.95;4.28;;;;;;;26.57;38.46;102020.66;6195596;28;20304;-52
2021/06/03 13:25:40;;;;;;;5.20;4.70;;;;;;;26.67;38.11;102011.16;6202752;28;20229;-56
2021/06/03 13:29:01;;;;;;;7.03;5.10;;;;;;;26.55;38.62;101994.00;6208613;28;20257;-58
2021/06/03 13:32:25;;;;;;;5.20;4.80;;;;;;;26.67;38.56;101997.81;6205890;28;20241;-58
2021/06/03 13:35:48;;;;;;;5.68;4.80;;;;;;;26.73;38.72;101994.78;6210592;28;20233;-58
2021/06/03 13:39:09;;;;;;;5.07;4.40;;;;;;;26.68;38.98;101988.88;6208464;28;20296;-61
2021/06/03 13:42:34;;;;;;;5.60;4.97;;;;;;;26.60;39.19;101986.63;6201614;28;20221;-59
2021/06/03 13:45:57;;;;;;;7.30;4.28;;;;;;;26.55;38.83;101979.81;6207342;28;20256;-56
2021/06/03 13:49:26;;;;;;;4.28;3.80;;;;;;;26.59;38.75;101973.38;6197584;28;20237;-58
2021/06/03 13:52:51;;;;;;;5.68;5.18;;;;;;;26.66;38.91;101972.06;6212851;28;20339;-58
2021/06/03 13:56:14;;;;;;;4.65;4.30;;;;;;;26.64;38.93;101966.81;6204925;28;20237;-58
2021/06/03 13:59:34;;;;;;;4.07;3.75;;;;;;;26.60;38.60;101959.94;6205089;28;20237;-54
2021/06/03 14:02:59;;;;;;;7.20;4.70;;;;;;;26.53;39.34;101953.19;6201309;28;20576;-58
2021/06/03 14:06:22;;;;;;;7.22;5.28;;;;;;;26.39;39.58;101940.63;6203819;28;20244;-58
2021/06/03 14:09:44;;;;;;;7.07;5.00;;;;;;;26.19;39.99;101936.47;6208445;28;20284;-58
2021/06/03 14:13:08;;;;;;;8.25;4.82;;;;;;;26.08;39.98;101925.53;6204198;28;20228;-58
2021/06/03 14:16:47;;;;;;;4.88;4.20;;;;;;;26.05;39.99;101918.53;6209041;28;20662;-57
2021/06/03 14:20:14;;;;;;;10.43;5.50;;;;;;;26.00;40.03;101920.63;6209434;28;20526;-58
2021/06/03 14:23:38;;;;;;;5.95;5.43;;;;;;;26.03;40.04;101917.78;6209142;28;20233;-59
2021/06/03 14:27:22;;;;;;;5.32;4.82;;;;;;;26.00;40.94;101909.97;6201211;28;20245;-58
2021/06/03 14:30:48;;;;;;;4.82;4.43;;;;;;;25.93;41.13;101911.25;6202608;28;20225;-58
2021/06/03 14:34:27;;;;;;;4.70;4.32;;;;;;;26.04;41.05;101908.81;6197917;28;20237;-58
2021/06/03 14:37:51;;;;;;;6.05;4.10;;;;;;;26.11;41.18;101917.34;6204452;28;20236;-59
2021/06/03 14:41:11;;;;;;;6.47;5.38;;;;;;;26.07;41.21;101916.63;6206114;28;20600;-59
2021/06/03 14:44:49;;;;;;;6.90;4.97;;;;;;;26.19;41.12;101912.44;6201399;28;20257;-58
2021/06/03 14:48:11;;;;;;;5.18;4.68;;;;;;;26.32;40.74;101918.75;6204924;28;20267;-60
2021/06/03 14:51:31;;;;;;;5.20;4.70;;;;;;;26.40;41.35;101925.47;6214901;28;20237;-59
2021/06/03 14:54:52;;;;;;;7.97;5.28;;;;;;;26.38;40.87;101930.91;6211897;28;20324;-59
2021/06/03 14:58:14;;;;;;;5.60;5.10;;;;;;;26.35;41.08;101936.44;6204131;28;20256;-58
2021/06/03 15:01:35;;;;;;;6.03;5.47;;;;;;;26.31;41.03;101932.22;6193718;28;20233;-60
2021/06/03 15:04:56;;;;;;;5.43;4.85;;;;;;;26.31;40.88;101934.88;6205664;28;20300;-58
2021/06/03 15:08:16;;;;;;;6.22;5.63;;;;;;;26.21;41.53;101936.34;6202665;28;20261;-59
2021/06/03 15:11:37;;;;;;;5.93;5.13;;;;;;;26.31;41.29;101933.06;6203681;28;20319;-59
2021/06/03 15:14:58;;;;;;;7.47;5.35;;;;;;;26.30;41.18;101927.81;6209094;28;20491;-58
2021/06/03 15:18:20;;;;;;;5.13;4.72;;;;;;;26.36;40.93;101935.47;6202055;28;20252;-58
2021/06/03 15:21:41;;;;;;;5.05;4.53;;;;;;;26.25;41.04;101928.09;6200595;28;20237;-58
2021/06/03 15:25:03;;;;;;;5.13;4.72;;;;;;;26.27;40.90;101931.53;6202476;28;20334;-58
2021/06/03 15:28:24;;;;;;;5.93;4.68;;;;;;;26.24;41.03;101926.34;6210589;28;20257;-59
2021/06/03 15:31:44;;;;;;;6.57;5.13;;;;;;;26.28;40.74;101932.38;6204938;28;20589;-56
2021/06/03 15:35:08;;;;;;;7.20;5.22;;;;;;;26.06;41.21;101936.28;6205980;28;20233;-59
2021/06/03 15:38:28;;;;;;;5.63;5.00;;;;;;;26.13;41.58;101937.66;6204511;28;20229;-58
2021/06/03 15:41:49;;;;;;;5.78;5.25;;;;;;;26.09;41.68;101938.78;6207861;28;20252;-58
2021/06/03 15:45:11;;;;;;;6.30;4.60;;;;;;;25.71;42.89;101947.09;6203086;28;20252;-58
2021/06/03 15:48:31;;;;;;;5.47;4.97;;;;;;;25.82;42.44;101950.97;6200509;28;20229;-59